sensor_id;sensor_type;location;lat;lon;timestamp;pressure;altitude;pressure_sealevel;temperature;humidity
8627;BME280;4351;51.422;6.794;2023-07-29T00:00:26;110204.13;;;18.54;39.87
8627;BME280;4351;51.422;6.794;2023-07-29T00:02:54;110114.19;;;18.45;39.88
8627;BME280;4351;51.422;6.794;2023-07-29T00:05:22;110059.28;;;18.42;39.89
8627;BME280;4351;51.422;6.794;2023-07-29T00:07:50;110202.69;;;18.44;39.89
8627;BME280;4351;51.422;6.794;2023-07-29T00:10:18;110006.63;;;18.48;39.89
8627;BME280;4351;51.422;6.794;2023-07-29T00:12:48;110090.56;;;18.47;39.89
8627;BME280;4351;51.422;6.794;2023-07-29T00:15:16;109956.25;;;18.44;39.90
8627;BME280;4351;51.422;6.794;2023-07-29T00:17:43;109855.75;;;18.42;39.91
8627;BME280;4351;51.422;6.794;2023-07-29T00:20:11;109788.06;;;18.39;39.92
8627;BME280;4351;51.422;6.794;2023-07-29T00:22:39;109900.41;;;18.41;39.92
8627;BME280;4351;51.422;6.794;2023-07-29T00:25:07;110125.78;;;18.40;39.91
8627;BME280;4351;51.422;6.794;2023-07-29T00:27:35;110077.25;;;18.37;39.92
8627;BME280;4351;51.422;6.794;2023-07-29T00:30:06;109912.84;;;18.34;39.93
8627;BME280;4351;51.422;6.794;2023-07-29T00:32:35;110083.63;;;18.36;39.91
8627;BME280;4351;51.422;6.794;2023-07-29T00:35:05;110204.91;;;18.35;39.89
8627;BME280;4351;51.422;6.794;2023-07-29T00:37:36;110187.53;;;18.34;39.89
8627;BME280;4351;51.422;6.794;2023-07-29T00:40:13;110149.13;;;18.33;39.91
8627;BME280;4351;51.422;6.794;2023-07-29T00:42:42;110280.63;;;18.34;39.88
8627;BME280;4351;51.422;6.794;2023-07-29T00:45:12;110118.31;;;18.37;39.90
8627;BME280;4351;51.422;6.794;2023-07-29T00:47:41;110264.47;;;18.39;39.88
8627;BME280;4351;51.422;6.794;2023-07-29T00:50:11;110381.38;;;18.40;39.88
8627;BME280;4351;51.422;6.794;2023-07-29T00:52:39;110202.25;;;18.36;39.89
8627;BME280;4351;51.422;6.794;2023-07-29T00:55:08;110017.09;;;18.38;39.89
8627;BME280;4351;51.422;6.794;2023-07-29T00:57:36;110159.25;;;18.34;39.88
8627;BME280;4351;51.422;6.794;2023-07-29T01:00:05;110245.22;;;18.37;39.90
8627;BME280;4351;51.422;6.794;2023-07-29T01:02:36;110274.66;;;18.42;39.89
8627;BME280;4351;51.422;6.794;2023-07-29T01:05:05;110301.28;;;18.44;39.89
8627;BME280;4351;51.422;6.794;2023-07-29T01:07:38;109973.47;;;18.42;39.90
8627;BME280;4351;51.422;6.794;2023-07-29T01:10:11;110044.84;;;18.45;39.90
8627;BME280;4351;51.422;6.794;2023-07-29T01:12:51;110026.44;;;18.42;39.89
8627;BME280;4351;51.422;6.794;2023-07-29T01:15:26;110129.59;;;18.43;39.89
8627;BME280;4351;51.422;6.794;2023-07-29T01:18:04;109939.66;;;18.41;39.88
8627;BME280;4351;51.422;6.794;2023-07-29T01:20:37;109952.50;;;18.42;39.90
8627;BME280;4351;51.422;6.794;2023-07-29T01:23:06;110112.41;;;18.46;39.88
8627;BME280;4351;51.422;6.794;2023-07-29T01:25:36;110021.03;;;18.44;39.90
8627;BME280;4351;51.422;6.794;2023-07-29T01:28:05;109898.84;;;18.46;39.90
8627;BME280;4351;51.422;6.794;2023-07-29T01:30:38;109912.47;;;18.44;39.91
8627;BME280;4351;51.422;6.794;2023-07-29T01:33:13;109809.25;;;18.43;39.92
8627;BME280;4351;51.422;6.794;2023-07-29T01:35:46;109722.59;;;18.44;39.93
8627;BME280;4351;51.422;6.794;2023-07-29T01:38:17;110069.47;;;18.45;39.90
8627;BME280;4351;51.422;6.794;2023-07-29T01:40:48;110161.44;;;18.41;39.89
8627;BME280;4351;51.422;6.794;2023-07-29T01:43:16;109994.75;;;18.47;39.88
8627;BME280;4351;51.422;6.794;2023-07-29T01:45:45;110140.81;;;18.48;39.88
8627;BME280;4351;51.422;6.794;2023-07-29T01:48:13;110090.56;;;18.47;39.89
8627;BME280;4351;51.422;6.794;2023-07-29T01:50:41;110148.19;;;18.49;39.88
8627;BME280;4351;51.422;6.794;2023-07-29T01:53:08;109919.03;;;18.48;39.89
8627;BME280;4351;51.422;6.794;2023-07-29T01:55:36;109977.47;;;18.48;39.88
8627;BME280;4351;51.422;6.794;2023-07-29T01:58:06;109934.66;;;18.50;39.89
8627;BME280;4351;51.422;6.794;2023-07-29T02:00:36;109983.97;;;18.50;39.90
8627;BME280;4351;51.422;6.794;2023-07-29T02:03:04;110052.41;;;18.50;39.89
8627;BME280;4351;51.422;6.794;2023-07-29T02:05:32;109949.22;;;18.49;39.88
8627;BME280;4351;51.422;6.794;2023-07-29T02:08:00;110013.25;;;18.52;39.88
8627;BME280;4351;51.422;6.794;2023-07-29T02:10:28;109822.47;;;18.52;39.91
8627;BME280;4351;51.422;6.794;2023-07-29T02:12:56;109898.97;;;18.67;39.89
8627;BME280;4351;51.422;6.794;2023-07-29T02:15:25;110007.25;;;18.60;39.88
8627;BME280;4351;51.422;6.794;2023-07-29T02:17:54;109962.28;;;18.55;39.89
8627;BME280;4351;51.422;6.794;2023-07-29T02:20:22;109872.88;;;18.56;39.90
8627;BME280;4351;51.422;6.794;2023-07-29T02:22:51;109852.81;;;18.57;39.90
8627;BME280;4351;51.422;6.794;2023-07-29T02:25:18;109815.19;;;18.53;39.89
8627;BME280;4351;51.422;6.794;2023-07-29T02:27:47;109925.75;;;18.55;39.90
8627;BME280;4351;51.422;6.794;2023-07-29T02:30:14;109789.78;;;18.55;39.91
8627;BME280;4351;51.422;6.794;2023-07-29T02:32:44;109924.03;;;18.57;39.96
8627;BME280;4351;51.422;6.794;2023-07-29T02:35:12;110809.72;;;18.59;39.87
8627;BME280;4351;51.422;6.794;2023-07-29T02:37:40;109868.25;;;18.55;39.98
8627;BME280;4351;51.422;6.794;2023-07-29T02:40:08;110307.16;;;18.52;39.91
8627;BME280;4351;51.422;6.794;2023-07-29T02:42:37;110477.09;;;18.54;39.89
8627;BME280;4351;51.422;6.794;2023-07-29T02:45:06;110607.50;;;18.52;39.90
8627;BME280;4351;51.422;6.794;2023-07-29T02:47:36;110741.06;;;18.56;39.91
8627;BME280;4351;51.422;6.794;2023-07-29T02:50:07;110831.47;;;18.56;39.93
8627;BME280;4351;51.422;6.794;2023-07-29T02:52:35;110995.91;;;18.57;39.91
8627;BME280;4351;51.422;6.794;2023-07-29T02:55:04;110787.63;;;18.56;39.92
8627;BME280;4351;51.422;6.794;2023-07-29T02:57:32;110854.09;;;18.53;39.89
8627;BME280;4351;51.422;6.794;2023-07-29T02:59:59;110879.91;;;18.57;39.91
8627;BME280;4351;51.422;6.794;2023-07-29T03:02:28;111336.66;;;18.59;39.90
8627;BME280;4351;51.422;6.794;2023-07-29T03:04:56;111500.09;;;18.59;39.91
8627;BME280;4351;51.422;6.794;2023-07-29T03:07:25;111606.25;;;18.61;39.90
8627;BME280;4351;51.422;6.794;2023-07-29T03:09:53;111584.22;;;18.60;39.90
8627;BME280;4351;51.422;6.794;2023-07-29T03:12:21;111854.63;;;18.61;39.92
8627;BME280;4351;51.422;6.794;2023-07-29T03:14:49;111944.81;;;18.58;39.92
8627;BME280;4351;51.422;6.794;2023-07-29T03:17:17;112579.09;;;18.61;39.92
8627;BME280;4351;51.422;6.794;2023-07-29T03:19:45;112363.38;;;18.60;39.92
8627;BME280;4351;51.422;6.794;2023-07-29T03:22:13;112660.81;;;18.76;39.92
8627;BME280;4351;51.422;6.794;2023-07-29T03:24:42;112213.91;;;18.64;39.92
8627;BME280;4351;51.422;6.794;2023-07-29T03:27:10;112554.41;;;18.61;39.92
8627;BME280;4351;51.422;6.794;2023-07-29T03:29:38;112557.28;;;18.63;39.92
8627;BME280;4351;51.422;6.794;2023-07-29T03:32:06;112371.88;;;18.64;39.91
8627;BME280;4351;51.422;6.794;2023-07-29T03:34:34;112256.66;;;18.62;39.92
8627;BME280;4351;51.422;6.794;2023-07-29T03:37:02;112458.19;;;18.58;39.93
8627;BME280;4351;51.422;6.794;2023-07-29T03:39:30;112649.13;;;18.58;39.94
8627;BME280;4351;51.422;6.794;2023-07-29T03:41:59;112833.84;;;18.60;39.93
8627;BME280;4351;51.422;6.794;2023-07-29T03:44:27;112846.59;;;18.59;39.92
8627;BME280;4351;51.422;6.794;2023-07-29T03:46:55;112867.53;;;18.59;39.93
8627;BME280;4351;51.422;6.794;2023-07-29T03:49:23;112883.41;;;18.53;39.92
8627;BME280;4351;51.422;6.794;2023-07-29T03:51:51;111476.03;;;18.67;39.91
8627;BME280;4351;51.422;6.794;2023-07-29T03:54:19;111424.84;;;18.54;39.90
8627;BME280;4351;51.422;6.794;2023-07-29T03:56:46;111131.94;;;18.70;39.91
8627;BME280;4351;51.422;6.794;2023-07-29T03:59:16;110396.31;;;18.62;39.89
8627;BME280;4351;51.422;6.794;2023-07-29T04:01:44;109798.22;;;18.60;39.90
8627;BME280;4351;51.422;6.794;2023-07-29T04:04:12;109683.47;;;18.66;39.90
8627;BME280;4351;51.422;6.794;2023-07-29T04:06:40;109764.13;;;18.53;39.89
8627;BME280;4351;51.422;6.794;2023-07-29T04:09:08;109622.59;;;18.52;39.90
8627;BME280;4351;51.422;6.794;2023-07-29T04:11:36;109461.84;;;18.49;39.94
8627;BME280;4351;51.422;6.794;2023-07-29T04:14:05;109581.44;;;18.50;39.94
8627;BME280;4351;51.422;6.794;2023-07-29T04:16:34;109347.59;;;18.45;40.06
8627;BME280;4351;51.422;6.794;2023-07-29T04:19:03;109967.03;;;18.41;39.98
8627;BME280;4351;51.422;6.794;2023-07-29T04:21:31;110386.09;;;18.43;39.92
8627;BME280;4351;51.422;6.794;2023-07-29T04:23:58;110028.75;;;18.34;39.94
8627;BME280;4351;51.422;6.794;2023-07-29T04:26:27;110073.75;;;18.40;39.92
8627;BME280;4351;51.422;6.794;2023-07-29T04:28:54;110005.06;;;18.35;39.95
8627;BME280;4351;51.422;6.794;2023-07-29T04:31:22;109906.50;;;18.35;39.94
8627;BME280;4351;51.422;6.794;2023-07-29T04:33:52;109771.03;;;18.45;39.95
8627;BME280;4351;51.422;6.794;2023-07-29T04:36:20;109975.25;;;18.41;39.92
8627;BME280;4351;51.422;6.794;2023-07-29T04:38:48;109651.19;;;18.39;39.94
8627;BME280;4351;51.422;6.794;2023-07-29T04:41:16;109744.28;;;18.39;39.92
8627;BME280;4351;51.422;6.794;2023-07-29T04:43:44;109668.63;;;18.41;39.90
8627;BME280;4351;51.422;6.794;2023-07-29T04:46:12;109521.59;;;18.38;39.91
8627;BME280;4351;51.422;6.794;2023-07-29T04:48:39;109574.53;;;18.39;39.89
8627;BME280;4351;51.422;6.794;2023-07-29T04:51:09;109488.84;;;18.40;39.89
8627;BME280;4351;51.422;6.794;2023-07-29T04:53:39;109235.09;;;18.39;39.90
8627;BME280;4351;51.422;6.794;2023-07-29T04:56:07;109197.34;;;18.30;39.89
8627;BME280;4351;51.422;6.794;2023-07-29T04:58:35;109126.63;;;18.41;39.87
8627;BME280;4351;51.422;6.794;2023-07-29T05:01:04;108603.69;;;18.36;39.90
8627;BME280;4351;51.422;6.794;2023-07-29T05:03:32;108558.03;;;18.34;39.91
8627;BME280;4351;51.422;6.794;2023-07-29T05:06:00;108566.13;;;18.31;39.91
8627;BME280;4351;51.422;6.794;2023-07-29T05:08:30;108443.91;;;18.30;39.98
8627;BME280;4351;51.422;6.794;2023-07-29T05:10:58;108463.00;;;18.28;39.99
8627;BME280;4351;51.422;6.794;2023-07-29T05:13:26;108559.59;;;18.25;39.96
8627;BME280;4351;51.422;6.794;2023-07-29T05:15:54;108613.41;;;18.25;39.95
8627;BME280;4351;51.422;6.794;2023-07-29T05:18:22;108391.53;;;18.17;39.97
8627;BME280;4351;51.422;6.794;2023-07-29T05:20:50;108537.63;;;18.22;39.96
8627;BME280;4351;51.422;6.794;2023-07-29T05:23:18;108458.25;;;18.21;39.99
8627;BME280;4351;51.422;6.794;2023-07-29T05:25:48;108398.97;;;18.21;40.02
8627;BME280;4351;51.422;6.794;2023-07-29T05:28:17;108473.91;;;18.26;39.97
8627;BME280;4351;51.422;6.794;2023-07-29T05:30:44;108311.38;;;18.18;39.98
8627;BME280;4351;51.422;6.794;2023-07-29T05:33:13;108063.41;;;18.22;40.09
8627;BME280;4351;51.422;6.794;2023-07-29T05:35:41;107463.63;;;18.35;40.46
8627;BME280;4351;51.422;6.794;2023-07-29T05:38:09;107151.78;;;18.37;40.73
8627;BME280;4351;51.422;6.794;2023-07-29T05:40:37;106796.19;;;18.46;41.30
8627;BME280;4351;51.422;6.794;2023-07-29T05:43:06;106409.66;;;18.30;42.09
8627;BME280;4351;51.422;6.794;2023-07-29T05:45:34;105989.53;;;18.24;42.88
8627;BME280;4351;51.422;6.794;2023-07-29T05:48:02;105768.09;;;18.23;44.52
8627;BME280;4351;51.422;6.794;2023-07-29T05:50:30;105723.38;;;18.27;46.11
8627;BME280;4351;51.422;6.794;2023-07-29T05:52:58;105651.53;;;18.19;48.65
8627;BME280;4351;51.422;6.794;2023-07-29T05:55:26;105697.00;;;18.24;51.75
8627;BME280;4351;51.422;6.794;2023-07-29T05:57:55;105629.72;;;18.11;59.24
8627;BME280;4351;51.422;6.794;2023-07-29T06:00:26;105789.19;;;18.10;65.55
8627;BME280;4351;51.422;6.794;2023-07-29T06:02:54;105850.13;;;18.16;69.96
8627;BME280;4351;51.422;6.794;2023-07-29T06:05:22;105713.53;;;18.12;79.62
8627;BME280;4351;51.422;6.794;2023-07-29T06:07:51;105713.59;;;18.06;73.88
8627;BME280;4351;51.422;6.794;2023-07-29T06:10:19;105314.72;;;18.01;79.73
8627;BME280;4351;51.422;6.794;2023-07-29T06:12:47;104750.19;;;17.95;90.27
8627;BME280;4351;51.422;6.794;2023-07-29T06:15:15;104226.94;;;18.12;96.62
8627;BME280;4351;51.422;6.794;2023-07-29T06:17:44;103543.53;;;18.21;98.07
8627;BME280;4351;51.422;6.794;2023-07-29T06:20:13;102951.94;;;18.15;97.57
8627;BME280;4351;51.422;6.794;2023-07-29T06:22:41;102335.22;;;18.22;100.00
8627;BME280;4351;51.422;6.794;2023-07-29T06:25:09;101857.25;;;18.35;100.00
8627;BME280;4351;51.422;6.794;2023-07-29T06:27:37;101454.28;;;18.20;100.00
8627;BME280;4351;51.422;6.794;2023-07-29T06:30:06;101252.13;;;18.21;100.00
8627;BME280;4351;51.422;6.794;2023-07-29T06:32:34;100866.00;;;18.14;100.00
8627;BME280;4351;51.422;6.794;2023-07-29T06:35:05;100628.66;;;18.32;100.00
8627;BME280;4351;51.422;6.794;2023-07-29T06:37:32;100387.06;;;18.18;100.00
8627;BME280;4351;51.422;6.794;2023-07-29T06:40:01;100112.63;;;18.24;100.00
8627;BME280;4351;51.422;6.794;2023-07-29T06:42:30;99916.31;;;18.31;100.00
8627;BME280;4351;51.422;6.794;2023-07-29T06:44:59;99874.41;;;18.40;100.00
8627;BME280;4351;51.422;6.794;2023-07-29T06:47:27;99840.38;;;18.26;100.00
8627;BME280;4351;51.422;6.794;2023-07-29T06:49:54;99731.94;;;18.61;100.00
8627;BME280;4351;51.422;6.794;2023-07-29T06:52:24;99667.25;;;18.62;100.00
8627;BME280;4351;51.422;6.794;2023-07-29T06:54:52;99594.53;;;18.61;100.00
8627;BME280;4351;51.422;6.794;2023-07-29T06:57:20;99577.66;;;18.57;100.00
8627;BME280;4351;51.422;6.794;2023-07-29T06:59:48;99595.59;;;18.52;100.00
8627;BME280;4351;51.422;6.794;2023-07-29T07:02:16;99605.44;;;18.61;100.00
8627;BME280;4351;51.422;6.794;2023-07-29T07:04:44;99580.25;;;18.42;100.00
8627;BME280;4351;51.422;6.794;2023-07-29T07:07:12;99542.25;;;18.81;100.00
8627;BME280;4351;51.422;6.794;2023-07-29T07:09:42;99568.53;;;18.82;100.00
8627;BME280;4351;51.422;6.794;2023-07-29T07:12:09;99600.31;;;18.75;100.00
8627;BME280;4351;51.422;6.794;2023-07-29T07:14:37;99630.31;;;18.83;100.00
8627;BME280;4351;51.422;6.794;2023-07-29T07:17:05;99639.50;;;18.99;100.00
8627;BME280;4351;51.422;6.794;2023-07-29T07:19:36;99656.09;;;18.89;100.00
8627;BME280;4351;51.422;6.794;2023-07-29T07:22:04;99654.53;;;18.94;100.00
8627;BME280;4351;51.422;6.794;2023-07-29T07:24:32;99678.31;;;18.86;100.00
8627;BME280;4351;51.422;6.794;2023-07-29T07:27:01;99714.81;;;18.84;100.00
8627;BME280;4351;51.422;6.794;2023-07-29T07:29:29;99780.22;;;18.94;100.00
8627;BME280;4351;51.422;6.794;2023-07-29T07:31:57;99808.72;;;18.92;100.00
8627;BME280;4351;51.422;6.794;2023-07-29T07:34:25;99846.63;;;18.78;100.00
8627;BME280;4351;51.422;6.794;2023-07-29T07:36:53;99888.78;;;18.67;100.00
8627;BME280;4351;51.422;6.794;2023-07-29T07:39:21;99891.53;;;18.76;100.00
8627;BME280;4351;51.422;6.794;2023-07-29T07:41:49;99880.13;;;18.89;100.00
8627;BME280;4351;51.422;6.794;2023-07-29T07:44:18;99881.31;;;19.03;100.00
8627;BME280;4351;51.422;6.794;2023-07-29T07:46:46;99866.28;;;18.99;100.00
8627;BME280;4351;51.422;6.794;2023-07-29T07:49:14;99883.72;;;19.06;100.00
8627;BME280;4351;51.422;6.794;2023-07-29T07:51:43;99869.53;;;19.11;100.00
8627;BME280;4351;51.422;6.794;2023-07-29T07:54:11;99904.03;;;19.03;100.00
8627;BME280;4351;51.422;6.794;2023-07-29T07:56:39;99916.00;;;19.11;100.00
8627;BME280;4351;51.422;6.794;2023-07-29T07:59:06;99926.75;;;19.04;100.00
8627;BME280;4351;51.422;6.794;2023-07-29T08:01:36;99919.63;;;19.28;100.00
8627;BME280;4351;51.422;6.794;2023-07-29T08:04:05;99929.88;;;19.26;100.00
8627;BME280;4351;51.422;6.794;2023-07-29T08:06:33;99951.69;;;19.09;100.00
8627;BME280;4351;51.422;6.794;2023-07-29T08:09:02;99940.63;;;19.19;100.00
8627;BME280;4351;51.422;6.794;2023-07-29T08:11:30;99936.72;;;19.30;100.00
8627;BME280;4351;51.422;6.794;2023-07-29T08:13:58;99929.19;;;19.32;100.00
8627;BME280;4351;51.422;6.794;2023-07-29T08:16:26;99921.66;;;19.68;100.00
8627;BME280;4351;51.422;6.794;2023-07-29T08:18:55;99926.13;;;19.44;100.00
8627;BME280;4351;51.422;6.794;2023-07-29T08:21:23;99899.53;;;19.86;100.00
8627;BME280;4351;51.422;6.794;2023-07-29T08:23:51;99902.44;;;19.93;100.00
8627;BME280;4351;51.422;6.794;2023-07-29T08:26:19;99893.66;;;20.06;100.00
8627;BME280;4351;51.422;6.794;2023-07-29T08:28:48;99916.91;;;20.27;100.00
8627;BME280;4351;51.422;6.794;2023-07-29T08:31:20;99902.72;;;20.06;100.00
8627;BME280;4351;51.422;6.794;2023-07-29T08:33:48;99958.50;;;19.97;100.00
8627;BME280;4351;51.422;6.794;2023-07-29T08:36:17;99967.59;;;19.97;100.00
8627;BME280;4351;51.422;6.794;2023-07-29T08:38:45;99975.28;;;20.10;100.00
8627;BME280;4351;51.422;6.794;2023-07-29T08:41:14;99975.28;;;20.10;100.00
8627;BME280;4351;51.422;6.794;2023-07-29T08:43:50;99986.19;;;20.27;100.00
8627;BME280;4351;51.422;6.794;2023-07-29T08:46:19;99969.78;;;20.19;100.00
8627;BME280;4351;51.422;6.794;2023-07-29T08:48:47;99985.72;;;20.07;100.00
8627;BME280;4351;51.422;6.794;2023-07-29T08:51:19;99999.22;;;20.17;100.00
8627;BME280;4351;51.422;6.794;2023-07-29T08:53:48;99984.94;;;20.47;100.00
8627;BME280;4351;51.422;6.794;2023-07-29T08:56:16;99971.38;;;20.53;100.00
8627;BME280;4351;51.422;6.794;2023-07-29T08:58:45;99988.00;;;20.43;100.00
8627;BME280;4351;51.422;6.794;2023-07-29T09:01:13;100009.25;;;20.41;100.00
8627;BME280;4351;51.422;6.794;2023-07-29T09:03:42;100042.75;;;20.52;100.00
8627;BME280;4351;51.422;6.794;2023-07-29T09:06:10;100027.19;;;20.52;100.00
8627;BME280;4351;51.422;6.794;2023-07-29T09:08:41;100007.91;;;20.37;100.00
8627;BME280;4351;51.422;6.794;2023-07-29T09:11:09;100021.22;;;20.49;100.00
8627;BME280;4351;51.422;6.794;2023-07-29T09:13:37;100020.66;;;20.62;100.00
8627;BME280;4351;51.422;6.794;2023-07-29T09:16:05;100023.78;;;20.50;100.00
8627;BME280;4351;51.422;6.794;2023-07-29T09:18:33;100038.28;;;20.59;100.00
8627;BME280;4351;51.422;6.794;2023-07-29T09:21:01;100043.34;;;20.30;100.00
8627;BME280;4351;51.422;6.794;2023-07-29T09:23:38;100069.69;;;20.23;100.00
8627;BME280;4351;51.422;6.794;2023-07-29T09:26:08;100086.81;;;20.25;100.00
8627;BME280;4351;51.422;6.794;2023-07-29T09:28:37;100083.00;;;20.43;100.00
8627;BME280;4351;51.422;6.794;2023-07-29T09:31:06;100069.44;;;20.66;100.00
8627;BME280;4351;51.422;6.794;2023-07-29T09:33:35;100061.06;;;20.60;100.00
8627;BME280;4351;51.422;6.794;2023-07-29T09:36:08;100060.72;;;20.54;100.00
8627;BME280;4351;51.422;6.794;2023-07-29T09:38:37;100042.59;;;20.45;100.00
8627;BME280;4351;51.422;6.794;2023-07-29T09:41:05;100063.78;;;20.68;100.00
8627;BME280;4351;51.422;6.794;2023-07-29T09:43:35;100057.66;;;20.58;100.00
8627;BME280;4351;51.422;6.794;2023-07-29T09:46:04;100073.97;;;20.42;100.00
8627;BME280;4351;51.422;6.794;2023-07-29T09:48:33;100103.94;;;20.36;100.00
8627;BME280;4351;51.422;6.794;2023-07-29T09:51:09;100105.19;;;20.73;100.00
8627;BME280;4351;51.422;6.794;2023-07-29T09:53:43;100088.41;;;20.76;100.00
8627;BME280;4351;51.422;6.794;2023-07-29T09:56:13;100085.16;;;20.73;100.00
8627;BME280;4351;51.422;6.794;2023-07-29T09:58:44;100072.72;;;21.02;100.00
8627;BME280;4351;51.422;6.794;2023-07-29T10:01:13;100030.47;;;20.88;100.00
8627;BME280;4351;51.422;6.794;2023-07-29T10:03:42;99997.53;;;20.96;100.00
8627;BME280;4351;51.422;6.794;2023-07-29T10:06:11;99987.41;;;21.05;100.00
8627;BME280;4351;51.422;6.794;2023-07-29T10:08:40;100008.22;;;20.83;100.00
8627;BME280;4351;51.422;6.794;2023-07-29T10:11:10;100013.28;;;21.02;100.00
8627;BME280;4351;51.422;6.794;2023-07-29T10:13:38;100010.13;;;21.14;100.00
8627;BME280;4351;51.422;6.794;2023-07-29T10:16:08;99994.78;;;20.96;100.00
8627;BME280;4351;51.422;6.794;2023-07-29T10:18:36;99998.75;;;20.94;100.00
8627;BME280;4351;51.422;6.794;2023-07-29T10:21:06;99996.78;;;21.11;100.00
8627;BME280;4351;51.422;6.794;2023-07-29T10:23:37;99993.16;;;21.19;100.00
8627;BME280;4351;51.422;6.794;2023-07-29T10:26:10;100019.09;;;21.08;100.00
8627;BME280;4351;51.422;6.794;2023-07-29T10:28:40;100020.38;;;21.20;100.00
8627;BME280;4351;51.422;6.794;2023-07-29T10:31:10;100030.41;;;21.05;100.00
8627;BME280;4351;51.422;6.794;2023-07-29T10:33:39;100035.72;;;20.98;100.00
8627;BME280;4351;51.422;6.794;2023-07-29T10:36:08;100075.50;;;21.34;100.00
8627;BME280;4351;51.422;6.794;2023-07-29T10:38:36;100050.34;;;21.22;100.00
8627;BME280;4351;51.422;6.794;2023-07-29T10:41:05;100028.94;;;21.17;100.00
8627;BME280;4351;51.422;6.794;2023-07-29T10:43:33;100025.94;;;21.35;100.00
8627;BME280;4351;51.422;6.794;2023-07-29T10:46:16;100019.56;;;21.43;100.00
8627;BME280;4351;51.422;6.794;2023-07-29T10:48:53;100026.31;;;21.56;100.00
8627;BME280;4351;51.422;6.794;2023-07-29T10:51:25;100021.59;;;21.65;100.00
8627;BME280;4351;51.422;6.794;2023-07-29T10:53:56;99990.22;;;21.67;100.00
8627;BME280;4351;51.422;6.794;2023-07-29T10:56:26;99986.28;;;21.85;100.00
8627;BME280;4351;51.422;6.794;2023-07-29T10:58:56;99986.97;;;21.87;100.00
8627;BME280;4351;51.422;6.794;2023-07-29T11:01:30;100000.88;;;22.01;100.00
8627;BME280;4351;51.422;6.794;2023-07-29T11:04:23;100014.50;;;21.94;100.00
8627;BME280;4351;51.422;6.794;2023-07-29T11:07:20;100009.97;;;22.01;100.00
8627;BME280;4351;51.422;6.794;2023-07-29T11:09:55;99989.72;;;21.87;100.00
8627;BME280;4351;51.422;6.794;2023-07-29T11:12:38;99988.31;;;21.91;100.00
8627;BME280;4351;51.422;6.794;2023-07-29T11:15:13;99989.72;;;21.87;100.00
8627;BME280;4351;51.422;6.794;2023-07-29T11:17:44;100004.94;;;21.66;100.00
8627;BME280;4351;51.422;6.794;2023-07-29T11:20:13;100007.88;;;21.88;100.00
8627;BME280;4351;51.422;6.794;2023-07-29T11:22:41;100015.31;;;21.79;100.00
8627;BME280;4351;51.422;6.794;2023-07-29T11:25:11;100013.50;;;21.71;100.00
8627;BME280;4351;51.422;6.794;2023-07-29T11:27:39;100017.56;;;21.76;100.00
8627;BME280;4351;51.422;6.794;2023-07-29T11:30:08;100013.03;;;21.83;100.00
8627;BME280;4351;51.422;6.794;2023-07-29T11:32:38;100003.00;;;21.75;100.00
8627;BME280;4351;51.422;6.794;2023-07-29T11:35:09;99993.81;;;21.83;100.00
8627;BME280;4351;51.422;6.794;2023-07-29T11:37:39;100012.25;;;21.98;100.00
8627;BME280;4351;51.422;6.794;2023-07-29T11:40:08;99998.81;;;22.03;100.00
8627;BME280;4351;51.422;6.794;2023-07-29T11:42:37;99997.13;;;22.02;100.00
8627;BME280;4351;51.422;6.794;2023-07-29T11:45:06;99990.00;;;22.23;100.00
8627;BME280;4351;51.422;6.794;2023-07-29T11:47:35;99981.59;;;22.39;100.00
8627;BME280;4351;51.422;6.794;2023-07-29T11:50:05;99980.94;;;22.37;100.00
8627;BME280;4351;51.422;6.794;2023-07-29T11:52:37;99977.59;;;22.57;100.00
8627;BME280;4351;51.422;6.794;2023-07-29T11:55:07;99996.84;;;22.42;100.00
8627;BME280;4351;51.422;6.794;2023-07-29T11:57:37;100064.78;;;22.63;100.00
8627;BME280;4351;51.422;6.794;2023-07-29T12:00:07;100076.44;;;22.66;100.00
8627;BME280;4351;51.422;6.794;2023-07-29T12:02:38;100121.44;;;22.65;100.00
8627;BME280;4351;51.422;6.794;2023-07-29T12:05:08;100126.34;;;22.54;100.00
8627;BME280;4351;51.422;6.794;2023-07-29T12:07:39;100131.19;;;22.52;100.00
8627;BME280;4351;51.422;6.794;2023-07-29T12:10:08;100147.47;;;22.54;100.00
8627;BME280;4351;51.422;6.794;2023-07-29T12:12:40;100157.78;;;22.36;100.00
8627;BME280;4351;51.422;6.794;2023-07-29T12:15:11;100163.94;;;22.38;100.00
8627;BME280;4351;51.422;6.794;2023-07-29T12:17:40;100187.25;;;22.43;100.00
8627;BME280;4351;51.422;6.794;2023-07-29T12:20:09;100180.97;;;22.34;100.00
8627;BME280;4351;51.422;6.794;2023-07-29T12:22:39;100180.75;;;22.20;100.00
8627;BME280;4351;51.422;6.794;2023-07-29T12:25:08;100198.72;;;22.46;100.00
8627;BME280;4351;51.422;6.794;2023-07-29T12:27:36;100203.59;;;22.59;100.00
8627;BME280;4351;51.422;6.794;2023-07-29T12:30:05;100200.06;;;22.50;100.00
8627;BME280;4351;51.422;6.794;2023-07-29T12:32:33;100227.91;;;22.24;100.00
8627;BME280;4351;51.422;6.794;2023-07-29T12:35:00;100225.38;;;22.22;100.00
8627;BME280;4351;51.422;6.794;2023-07-29T12:37:32;100241.09;;;22.28;100.00
8627;BME280;4351;51.422;6.794;2023-07-29T12:40:02;100254.09;;;22.35;100.00
8627;BME280;4351;51.422;6.794;2023-07-29T12:42:30;100269.50;;;22.44;100.00
8627;BME280;4351;51.422;6.794;2023-07-29T12:44:58;100265.84;;;22.28;100.00
8627;BME280;4351;51.422;6.794;2023-07-29T12:47:26;100287.19;;;22.42;100.00
8627;BME280;4351;51.422;6.794;2023-07-29T12:49:54;100286.75;;;22.30;100.00
8627;BME280;4351;51.422;6.794;2023-07-29T12:52:22;100297.13;;;22.19;100.00
8627;BME280;4351;51.422;6.794;2023-07-29T12:54:49;100310.50;;;22.22;100.00
8627;BME280;4351;51.422;6.794;2023-07-29T12:57:19;100306.22;;;22.20;100.00
8627;BME280;4351;51.422;6.794;2023-07-29T12:59:47;100325.13;;;22.14;100.00
8627;BME280;4351;51.422;6.794;2023-07-29T13:02:15;100330.63;;;22.14;100.00
8627;BME280;4351;51.422;6.794;2023-07-29T13:04:42;100339.66;;;22.23;100.00
8627;BME280;4351;51.422;6.794;2023-07-29T13:07:10;100344.94;;;22.33;100.00
8627;BME280;4351;51.422;6.794;2023-07-29T13:09:38;100329.44;;;22.40;100.00
8627;BME280;4351;51.422;6.794;2023-07-29T13:12:06;100322.25;;;22.39;100.00
8627;BME280;4351;51.422;6.794;2023-07-29T13:14:36;100349.59;;;22.56;100.00
8627;BME280;4351;51.422;6.794;2023-07-29T13:17:04;100357.84;;;22.56;100.00